createdAt,value
2019-03-20T00:01:20.332Z,16.15
2019-03-20T00:03:50.436Z,13.88
2019-03-20T00:06:22.501Z,12.50
2019-03-20T00:08:52.640Z,11.48
2019-03-20T00:11:23.661Z,6.55
2019-03-20T00:13:54.596Z,6.75
2019-03-20T00:16:24.753Z,5.35
2019-03-20T00:18:55.844Z,4.28
2019-03-20T00:21:26.905Z,4.83
2019-03-20T00:23:57.003Z,4.10
2019-03-20T00:26:28.049Z,3.52
2019-03-20T00:29:05.181Z,3.77
2019-03-20T00:31:37.177Z,2.95
2019-03-20T00:34:09.972Z,3.62
2019-03-20T00:36:40.096Z,5.45
2019-03-20T00:39:10.173Z,5.50
2019-03-20T00:41:41.249Z,6.30
2019-03-20T00:44:11.343Z,5.15
2019-03-20T00:46:41.433Z,5.00
2019-03-20T00:49:12.561Z,5.95
2019-03-20T00:51:42.687Z,4.87
2019-03-20T00:54:12.781Z,4.72
2019-03-20T00:56:43.809Z,5.15
2019-03-20T00:59:16.885Z,3.65
2019-03-20T01:01:46.993Z,4.22
2019-03-20T01:04:17.160Z,5.05
2019-03-20T01:06:47.250Z,5.70
2019-03-20T01:09:25.346Z,4.72
2019-03-20T01:11:55.454Z,4.85
2019-03-20T01:14:27.789Z,4.65
2019-03-20T01:16:57.869Z,4.50
2019-03-20T01:19:33.465Z,3.98
2019-03-20T01:22:09.566Z,4.33
2019-03-20T01:24:41.653Z,5.17
2019-03-20T01:27:11.762Z,5.40
2019-03-20T01:29:41.845Z,4.70
2019-03-20T01:32:11.941Z,5.55
2019-03-20T01:34:49.852Z,5.30
2019-03-20T01:37:25.760Z,5.47
2019-03-20T01:39:55.897Z,5.28
2019-03-20T01:42:26.983Z,4.70
2019-03-20T01:44:58.069Z,5.83
2019-03-20T01:47:28.209Z,5.62
2019-03-20T01:49:59.321Z,6.37
2019-03-20T01:52:29.395Z,5.37
2019-03-20T01:54:59.482Z,5.53
2019-03-20T01:57:29.568Z,5.85
2019-03-20T02:00:11.006Z,6.00
2019-03-20T02:02:41.093Z,5.25
2019-03-20T02:05:11.589Z,5.75
2019-03-20T02:07:41.670Z,5.70
2019-03-20T02:10:16.509Z,6.05
2019-03-20T02:12:46.627Z,5.35
2019-03-20T02:15:20.099Z,6.17
2019-03-20T02:17:52.125Z,6.28
2019-03-20T02:20:22.677Z,5.65
2019-03-20T02:22:52.769Z,5.85
2019-03-20T02:25:22.926Z,6.25
2019-03-20T02:27:53.028Z,6.55
2019-03-20T02:30:23.154Z,5.70
2019-03-20T02:32:53.241Z,5.90
2019-03-20T02:35:23.349Z,7.28
2019-03-20T02:37:56.537Z,5.72
2019-03-20T02:40:31.813Z,6.05
2019-03-20T02:43:01.980Z,5.60
2019-03-20T02:45:31.999Z,5.78
2019-03-20T02:48:04.255Z,5.42
2019-03-20T02:50:34.383Z,5.45
2019-03-20T02:53:05.457Z,5.25
2019-03-20T02:55:35.730Z,5.30
2019-03-20T02:58:08.899Z,5.12
2019-03-20T03:00:38.983Z,4.83
2019-03-20T03:03:09.091Z,5.70
2019-03-20T03:05:44.977Z,5.90
2019-03-20T03:08:15.090Z,6.00
2019-03-20T03:10:45.312Z,6.70
2019-03-20T03:13:15.669Z,6.10
2019-03-20T03:15:45.803Z,6.70
2019-03-20T03:18:15.904Z,6.40
2019-03-20T03:20:47.134Z,7.80
2019-03-20T03:23:17.247Z,6.33
2019-03-20T03:25:50.001Z,6.78
2019-03-20T03:28:20.111Z,5.10
2019-03-20T03:30:50.221Z,5.72
2019-03-20T03:33:22.361Z,5.83
2019-03-20T03:35:52.407Z,5.75
2019-03-20T03:38:22.606Z,5.60
2019-03-20T03:40:53.677Z,5.47
2019-03-20T03:43:24.429Z,4.83
2019-03-20T03:45:54.783Z,6.22
2019-03-20T03:48:24.822Z,5.60
2019-03-20T03:50:54.928Z,6.05
2019-03-20T03:53:25.031Z,6.45
2019-03-20T03:55:55.222Z,5.90
2019-03-20T03:58:25.415Z,5.78
2019-03-20T04:00:55.521Z,6.67
2019-03-20T04:03:25.632Z,6.03
2019-03-20T04:05:55.684Z,5.70
2019-03-20T04:08:26.532Z,5.90
2019-03-20T04:10:58.597Z,5.67
2019-03-20T04:13:32.675Z,5.05
2019-03-20T04:16:02.809Z,5.60
2019-03-20T04:18:33.209Z,5.00
2019-03-20T04:21:03.343Z,4.95
2019-03-20T04:23:34.400Z,5.75
2019-03-20T04:26:04.645Z,5.67
2019-03-20T04:28:39.897Z,5.15
2019-03-20T04:31:09.990Z,5.42
2019-03-20T04:33:42.039Z,6.58
2019-03-20T04:36:14.102Z,6.72
2019-03-20T04:38:44.190Z,7.42
2019-03-20T04:41:14.366Z,6.42
2019-03-20T04:43:44.477Z,7.10
2019-03-20T04:46:15.538Z,6.75
2019-03-20T04:48:45.645Z,7.22
2019-03-20T04:51:15.729Z,6.50
2019-03-20T04:53:46.807Z,6.67
2019-03-20T04:56:16.894Z,9.03
2019-03-20T04:58:46.990Z,8.28
2019-03-20T05:01:18.054Z,7.95
2019-03-20T05:03:48.138Z,6.60
2019-03-20T05:06:18.230Z,6.60
2019-03-20T05:08:55.319Z,8.95
2019-03-20T05:11:29.766Z,6.50
2019-03-20T05:13:59.838Z,6.25
2019-03-20T05:16:29.922Z,6.90
2019-03-20T05:19:02.019Z,5.10
2019-03-20T05:21:32.098Z,6.42
2019-03-20T05:24:02.234Z,5.70
2019-03-20T05:26:33.290Z,5.97
2019-03-20T05:29:05.328Z,6.22
2019-03-20T05:31:43.266Z,6.45
2019-03-20T05:34:14.758Z,6.10
2019-03-20T05:36:44.878Z,6.30
2019-03-20T05:39:15.909Z,6.85
2019-03-20T05:41:47.074Z,5.53
2019-03-20T05:44:25.110Z,4.92
2019-03-20T05:46:55.208Z,4.95
2019-03-20T05:49:25.344Z,6.45
2019-03-20T05:51:55.419Z,7.45
2019-03-20T05:54:26.492Z,6.58
2019-03-20T05:56:56.578Z,7.90
2019-03-20T05:59:27.634Z,6.97
2019-03-20T06:02:03.611Z,6.30
2019-03-20T06:04:33.690Z,7.45
2019-03-20T06:07:03.798Z,7.15
2019-03-20T06:09:33.890Z,10.13
2019-03-20T06:12:03.996Z,9.70
2019-03-20T06:14:35.076Z,9.05
2019-03-20T06:17:06.146Z,6.50
2019-03-20T06:19:36.234Z,7.37
2019-03-20T06:22:07.340Z,7.45
2019-03-20T06:24:37.442Z,6.62
2019-03-20T06:27:07.558Z,7.30
2019-03-20T06:29:37.678Z,8.73
2019-03-20T06:32:07.738Z,7.72
2019-03-20T06:34:38.854Z,8.55
2019-03-20T06:37:09.214Z,6.83
2019-03-20T06:39:39.286Z,8.20
2019-03-20T06:42:09.390Z,7.37
2019-03-20T06:44:51.616Z,7.75
2019-03-20T06:47:21.738Z,6.72
2019-03-20T06:49:51.882Z,5.85
2019-03-20T06:52:28.006Z,6.37
2019-03-20T06:54:58.101Z,7.00
2019-03-20T06:57:28.314Z,6.00
2019-03-20T07:00:21.654Z,6.58
2019-03-20T07:02:51.930Z,6.03
2019-03-20T07:05:48.974Z,5.33
2019-03-20T07:08:21.146Z,5.60
2019-03-20T07:11:06.389Z,5.25
2019-03-20T07:13:36.666Z,5.40
2019-03-20T07:16:07.375Z,5.50
2019-03-20T07:18:38.590Z,5.70
2019-03-20T07:21:08.686Z,5.08
2019-03-20T07:23:39.678Z,5.37
2019-03-20T07:26:09.783Z,4.05
2019-03-20T07:28:39.870Z,5.03
2019-03-20T07:31:15.456Z,5.12
2019-03-20T07:33:41.810Z,4.40
2019-03-20T07:36:11.988Z,4.58
2019-03-20T07:38:42.078Z,5.25
2019-03-20T07:41:12.177Z,5.72
2019-03-20T07:43:50.050Z,4.40
2019-03-20T07:46:22.786Z,5.05
2019-03-20T07:48:52.917Z,4.10
2019-03-20T07:51:30.966Z,4.10
2019-03-20T07:54:01.061Z,4.93
2019-03-20T07:56:32.086Z,4.70
2019-03-20T07:59:02.174Z,5.13
2019-03-20T08:01:33.254Z,5.23
2019-03-20T08:04:04.632Z,4.73
2019-03-20T08:06:34.723Z,4.50
2019-03-20T08:09:07.118Z,4.00
2019-03-20T08:11:39.209Z,3.00
2019-03-20T08:14:10.326Z,2.60
2019-03-20T08:16:41.882Z,2.90
2019-03-20T08:19:11.963Z,3.80
2019-03-20T08:21:43.944Z,3.90
2019-03-20T08:24:14.101Z,3.73
2019-03-20T08:26:51.019Z,4.67
2019-03-20T08:29:21.838Z,5.70
2019-03-20T08:31:51.949Z,4.07
2019-03-20T08:34:23.030Z,3.43
2019-03-20T08:36:53.110Z,3.47
2019-03-20T08:39:23.191Z,3.57
2019-03-20T08:41:53.265Z,3.80
2019-03-20T08:44:26.034Z,3.53
2019-03-20T08:46:55.969Z,2.50
2019-03-20T08:49:26.031Z,2.03
2019-03-20T08:51:57.027Z,2.43
2019-03-20T08:54:27.105Z,2.90
2019-03-20T08:56:59.123Z,2.83
2019-03-20T08:59:29.219Z,4.70
2019-03-20T09:02:02.856Z,4.80
2019-03-20T09:04:32.937Z,5.07
2019-03-20T09:07:13.022Z,4.83
2019-03-20T09:09:43.138Z,3.97
2019-03-20T09:12:13.253Z,2.80
2019-03-20T09:14:43.342Z,2.60
2019-03-20T09:17:14.410Z,1.87
2019-03-20T09:19:45.501Z,2.07
2019-03-20T09:22:15.585Z,1.83
2019-03-20T09:24:54.351Z,2.00
2019-03-20T09:27:24.458Z,2.23
2019-03-20T09:29:55.434Z,2.07
2019-03-20T09:32:25.518Z,2.20
2019-03-20T09:34:55.613Z,2.57
2019-03-20T09:37:25.686Z,1.87
2019-03-20T09:39:55.851Z,2.20
2019-03-20T09:42:26.838Z,3.00
2019-03-20T09:45:06.062Z,2.00
2019-03-20T09:47:41.242Z,2.27
2019-03-20T09:50:21.466Z,2.40
2019-03-20T09:52:51.581Z,2.03
2019-03-20T09:55:27.930Z,1.90
2019-03-20T09:58:10.971Z,2.57
2019-03-20T10:00:32.786Z,2.23
2019-03-20T10:03:05.544Z,2.50
2019-03-20T10:05:36.642Z,2.63
2019-03-20T10:08:06.730Z,1.83
2019-03-20T10:10:44.868Z,2.13
2019-03-20T10:13:14.965Z,3.33
2019-03-20T10:15:48.761Z,2.60
2019-03-20T10:18:18.895Z,2.00
2019-03-20T10:20:49.946Z,3.40
2019-03-20T10:23:20.981Z,2.00
2019-03-20T10:25:51.959Z,2.57
2019-03-20T10:28:23.098Z,2.07
2019-03-20T10:30:54.098Z,2.90
2019-03-20T10:33:28.194Z,2.77
2019-03-20T10:35:58.338Z,4.80
2019-03-20T10:38:31.404Z,3.00
2019-03-20T10:41:08.421Z,2.90
2019-03-20T10:43:40.500Z,2.43
2019-03-20T10:46:10.623Z,2.43
2019-03-20T10:48:40.750Z,2.50
2019-03-20T10:51:21.533Z,3.13
2019-03-20T10:53:51.626Z,2.97
2019-03-20T10:56:21.752Z,2.17
2019-03-20T10:58:51.826Z,2.37
2019-03-20T11:01:21.942Z,2.30
2019-03-20T11:03:52.993Z,3.03
2019-03-20T11:06:24.002Z,3.00
2019-03-20T11:08:54.090Z,3.57
2019-03-20T11:11:27.276Z,3.13
2019-03-20T11:13:57.966Z,2.20
2019-03-20T11:16:28.942Z,2.20
2019-03-20T11:19:00.030Z,2.30
2019-03-20T11:21:32.783Z,2.20
2019-03-20T11:24:02.894Z,2.20
2019-03-20T11:26:32.994Z,2.80
2019-03-20T11:29:05.146Z,2.40
2019-03-20T11:31:35.306Z,2.70
2019-03-20T11:34:05.787Z,2.20
2019-03-20T11:36:36.870Z,2.03
2019-03-20T11:39:10.455Z,1.90
2019-03-20T11:41:41.558Z,1.73
2019-03-20T11:44:12.590Z,2.87
2019-03-20T11:46:43.559Z,2.40
2019-03-20T11:49:13.882Z,2.13
2019-03-20T11:51:43.974Z,1.90
2019-03-20T11:54:15.030Z,2.10
2019-03-20T11:56:45.139Z,1.97
2019-03-20T11:59:15.210Z,2.33
2019-03-20T12:01:52.882Z,2.47
2019-03-20T12:04:22.976Z,2.10
2019-03-20T12:06:54.006Z,2.00
2019-03-20T12:09:24.982Z,1.90
2019-03-20T12:11:55.958Z,1.70
2019-03-20T12:14:26.047Z,1.90
2019-03-20T12:16:56.139Z,2.20
2019-03-20T12:19:26.221Z,2.27
2019-03-20T12:21:57.274Z,1.70
2019-03-20T12:24:27.354Z,1.90
2019-03-20T12:26:59.390Z,2.00
2019-03-20T12:29:31.006Z,1.90
2019-03-20T12:32:02.007Z,1.43
2019-03-20T12:34:32.090Z,1.80
2019-03-20T12:37:03.066Z,1.63
2019-03-20T12:39:34.155Z,1.83
2019-03-20T12:42:07.490Z,2.00
2019-03-20T12:44:38.579Z,2.00
2019-03-20T12:47:09.550Z,1.83
2019-03-20T12:49:40.559Z,2.70
2019-03-20T12:52:10.654Z,1.83
2019-03-20T12:54:42.770Z,3.00
2019-03-20T12:57:12.859Z,1.73
2019-03-20T12:59:46.049Z,2.17
2019-03-20T13:02:17.570Z,2.50
2019-03-20T13:04:47.674Z,1.73
2019-03-20T13:07:17.786Z,1.93
2019-03-20T13:09:47.876Z,2.30
2019-03-20T13:12:18.022Z,2.13
2019-03-20T13:14:48.126Z,2.37
2019-03-20T13:17:18.206Z,2.10
2019-03-20T13:19:48.294Z,1.97
2019-03-20T13:22:18.405Z,2.13
2019-03-20T13:24:50.918Z,2.00
2019-03-20T13:27:21.999Z,2.20
2019-03-20T13:29:52.091Z,2.30
2019-03-20T13:32:29.612Z,2.60
2019-03-20T13:34:59.688Z,2.87
2019-03-20T13:37:36.676Z,2.23
2019-03-20T13:40:14.525Z,1.90
2019-03-20T13:42:46.339Z,2.67
2019-03-20T13:45:22.802Z,1.70
2019-03-20T13:47:52.907Z,2.37
2019-03-20T13:50:22.984Z,1.63
2019-03-20T13:52:56.126Z,2.00
2019-03-20T13:55:39.149Z,2.50
2019-03-20T13:58:10.187Z,2.40
2019-03-20T14:00:43.398Z,1.70
2019-03-20T14:03:21.278Z,2.00
2019-03-20T14:05:51.410Z,2.50
2019-03-20T14:08:24.018Z,2.50
2019-03-20T14:10:54.102Z,1.87
2019-03-20T14:13:24.191Z,2.17
2019-03-20T14:15:54.326Z,2.20
2019-03-20T14:18:30.266Z,2.50
2019-03-20T14:21:00.342Z,2.57
2019-03-20T14:23:30.425Z,2.20
2019-03-20T14:26:01.458Z,2.73
2019-03-20T14:28:31.571Z,3.07
2019-03-20T14:31:01.654Z,1.70
2019-03-20T14:33:32.910Z,1.70
2019-03-20T14:36:06.258Z,2.27
2019-03-20T14:38:47.307Z,2.20
2019-03-20T14:41:21.642Z,2.10
2019-03-20T14:43:51.010Z,2.70
2019-03-20T14:46:21.086Z,1.80
2019-03-20T14:48:52.098Z,2.13
2019-03-20T14:51:22.174Z,2.20
2019-03-20T14:53:52.274Z,2.40
2019-03-20T14:56:22.350Z,1.53
2019-03-20T14:58:54.434Z,2.10
2019-03-20T15:01:24.523Z,2.53
2019-03-20T15:03:55.572Z,3.30
2019-03-20T15:06:26.626Z,1.50
2019-03-20T15:08:56.698Z,1.93
2019-03-20T15:11:28.730Z,2.20
2019-03-20T15:13:58.819Z,2.00
2019-03-20T15:16:31.999Z,1.80
2019-03-20T15:19:02.974Z,2.03
2019-03-20T15:21:35.028Z,2.40
2019-03-20T15:24:05.372Z,2.07
2019-03-20T15:26:35.522Z,1.40
2019-03-20T15:29:07.542Z,2.27
2019-03-20T15:31:37.630Z,2.30
2019-03-20T15:34:13.658Z,1.73
2019-03-20T15:36:46.826Z,2.43
2019-03-20T15:39:16.900Z,1.90
2019-03-20T15:41:48.885Z,1.60
2019-03-20T15:44:26.895Z,1.80
2019-03-20T15:46:56.970Z,2.23
2019-03-20T15:49:27.066Z,2.80
2019-03-20T15:51:58.185Z,2.00
2019-03-20T15:54:36.242Z,2.10
2019-03-20T15:57:08.154Z,1.93
2019-03-20T15:59:41.134Z,1.73
2019-03-20T16:02:12.154Z,2.40
2019-03-20T16:04:44.395Z,2.33
2019-03-20T16:07:23.150Z,2.17
2019-03-20T16:09:55.182Z,2.13
2019-03-20T16:12:27.148Z,2.00
2019-03-20T16:15:19.870Z,2.23
2019-03-20T16:17:54.129Z,1.93
2019-03-20T16:20:25.138Z,2.10
2019-03-20T16:23:09.098Z,2.23
2019-03-20T16:25:46.066Z,2.60
2019-03-20T16:28:18.159Z,2.40
2019-03-20T16:30:49.215Z,2.10
2019-03-20T16:33:23.990Z,2.00
2019-03-20T16:35:55.058Z,2.47
2019-03-20T16:38:31.078Z,1.97
2019-03-20T16:41:02.370Z,2.00
2019-03-20T16:43:32.479Z,2.13
2019-03-20T16:46:03.526Z,1.93
2019-03-20T16:48:36.298Z,2.67
2019-03-20T16:51:06.405Z,2.00
2019-03-20T16:53:36.522Z,2.03
2019-03-20T16:56:20.710Z,2.03
2019-03-20T16:58:50.826Z,1.63
2019-03-20T17:01:34.058Z,2.13
2019-03-20T17:04:09.975Z,1.83
2019-03-20T17:06:42.100Z,2.70
2019-03-20T17:09:14.602Z,2.17
2019-03-20T17:11:49.270Z,2.20
2019-03-20T17:14:21.246Z,1.83
2019-03-20T17:16:51.368Z,2.03
2019-03-20T17:19:21.471Z,1.93
2019-03-20T17:21:52.670Z,1.83
2019-03-20T17:24:25.787Z,1.57
2019-03-20T17:26:56.838Z,2.00
2019-03-20T17:29:26.918Z,2.08
2019-03-20T17:31:59.046Z,2.37
2019-03-20T17:34:35.175Z,3.33
2019-03-20T17:37:07.294Z,4.42
2019-03-20T17:39:39.278Z,3.20
2019-03-20T17:42:11.675Z,3.45
2019-03-20T17:44:41.758Z,2.75
2019-03-20T17:47:15.996Z,2.15
2019-03-20T17:49:51.998Z,1.80
2019-03-20T17:52:23.200Z,2.45
2019-03-20T17:54:53.298Z,1.95
2019-03-20T17:57:27.434Z,2.27
2019-03-20T17:59:57.514Z,1.52
2019-03-20T18:02:33.398Z,2.10
2019-03-20T18:05:07.454Z,1.37
2019-03-20T18:07:37.544Z,1.95
2019-03-20T18:10:07.698Z,1.42
2019-03-20T18:12:38.682Z,2.50
2019-03-20T18:15:17.916Z,1.98
2019-03-20T18:17:48.873Z,2.33
2019-03-20T18:20:22.646Z,1.87
2019-03-20T18:23:01.650Z,1.82
2019-03-20T18:25:31.712Z,2.58
2019-03-20T18:28:02.745Z,2.80
2019-03-20T18:30:39.408Z,4.95
2019-03-20T18:33:10.500Z,5.03
2019-03-20T18:35:41.510Z,5.33
2019-03-20T18:38:12.622Z,8.15
2019-03-20T18:40:44.952Z,9.60
2019-03-20T18:43:26.914Z,11.95
2019-03-20T18:45:58.886Z,10.28
2019-03-20T18:48:29.930Z,10.93
2019-03-20T18:51:00.063Z,7.62
2019-03-20T18:53:30.163Z,6.20
2019-03-20T18:56:02.274Z,8.90
2019-03-20T18:58:34.304Z,8.00
2019-03-20T19:01:05.388Z,5.75
2019-03-20T19:03:46.034Z,6.12
2019-03-20T19:06:29.731Z,6.92
2019-03-20T19:09:04.786Z,5.28
2019-03-20T19:11:34.984Z,6.70
2019-03-20T19:14:09.050Z,5.80
2019-03-20T19:16:39.174Z,6.05
2019-03-20T19:19:13.278Z,5.47
2019-03-20T19:21:43.385Z,5.92
2019-03-20T19:24:14.358Z,5.12
2019-03-20T19:26:50.164Z,7.47
2019-03-20T19:29:20.256Z,8.30
2019-03-20T19:31:51.874Z,7.75
2019-03-20T19:34:22.958Z,6.75
2019-03-20T19:37:07.430Z,6.35
2019-03-20T19:39:38.446Z,6.08
2019-03-20T19:42:19.432Z,6.10
2019-03-20T19:44:41.422Z,6.47
2019-03-20T19:47:13.530Z,6.12
2019-03-20T19:49:43.642Z,8.10
2019-03-20T19:52:13.764Z,8.65
2019-03-20T19:54:47.558Z,8.10
2019-03-20T19:57:25.706Z,8.90
2019-03-20T19:59:55.830Z,7.53
2019-03-20T20:02:31.751Z,8.98
2019-03-20T20:05:15.869Z,8.93
2019-03-20T20:07:56.550Z,7.00
2019-03-20T20:10:33.631Z,7.75
2019-03-20T20:13:05.742Z,9.10
2019-03-20T20:15:38.278Z,10.18
2019-03-20T20:18:08.375Z,11.40
2019-03-20T20:20:41.193Z,12.50
2019-03-20T20:23:11.298Z,11.95
2019-03-20T20:25:41.575Z,12.23
2019-03-20T20:28:12.696Z,12.25
2019-03-20T20:30:42.790Z,12.73
2019-03-20T20:33:32.210Z,11.35
2019-03-20T20:36:02.299Z,8.48
2019-03-20T20:38:32.378Z,6.97
2019-03-20T20:41:10.488Z,7.75
2019-03-20T20:43:44.715Z,9.08
2019-03-20T20:46:14.788Z,9.85
2019-03-20T20:48:44.886Z,11.48
2019-03-20T20:51:18.431Z,9.30
2019-03-20T20:53:50.586Z,9.28
2019-03-20T20:56:23.710Z,9.80
2019-03-20T20:59:03.843Z,7.35
2019-03-20T21:01:34.930Z,4.85
2019-03-20T21:04:07.414Z,6.17
2019-03-20T21:06:42.085Z,5.92
2019-03-20T21:09:14.062Z,5.47
2019-03-20T21:11:44.170Z,5.15
2019-03-20T21:14:14.305Z,4.65
2019-03-20T21:16:44.338Z,5.00
2019-03-20T21:19:35.722Z,5.72
2019-03-20T21:22:55.082Z,4.67
2019-03-20T21:25:27.143Z,5.40
2019-03-20T21:28:27.178Z,5.25
2019-03-20T21:31:01.896Z,4.65
2019-03-20T21:34:27.009Z,4.70
2019-03-20T21:37:27.934Z,5.95
2019-03-20T21:39:58.030Z,6.72
2019-03-20T21:43:06.771Z,5.65
2019-03-20T21:45:57.542Z,4.92
2019-03-20T21:48:27.654Z,5.40
2019-03-20T21:51:13.657Z,5.70
2019-03-20T21:54:35.083Z,4.62
2019-03-20T21:57:16.074Z,5.10
2019-03-20T22:00:24.190Z,5.42
2019-03-20T22:02:54.310Z,4.97
2019-03-20T22:05:35.747Z,5.75
2019-03-20T22:08:05.883Z,5.92
2019-03-20T22:10:58.246Z,6.95
2019-03-20T22:13:51.686Z,6.58
2019-03-20T22:17:20.014Z,6.47
2019-03-20T22:20:02.668Z,5.85
2019-03-20T22:23:11.165Z,6.60
2019-03-20T22:25:53.866Z,6.85
2019-03-20T22:29:13.863Z,7.97
2019-03-20T22:32:16.978Z,6.40
2019-03-20T22:35:21.585Z,6.75
2019-03-20T22:37:52.050Z,8.65
2019-03-20T22:41:05.192Z,7.50
2019-03-20T22:43:42.893Z,7.70
2019-03-20T22:46:36.010Z,7.17
2019-03-20T22:49:26.375Z,6.45
2019-03-20T22:52:18.614Z,8.10
2019-03-20T22:55:16.610Z,7.55
2019-03-20T22:58:00.986Z,7.05
2019-03-20T23:00:33.178Z,7.08
2019-03-20T23:03:20.674Z,7.15
2019-03-20T23:05:52.727Z,7.40
2019-03-20T23:08:22.819Z,7.60
2019-03-20T23:10:53.008Z,10.20
2019-03-20T23:13:23.250Z,9.60
2019-03-20T23:15:54.323Z,8.95
2019-03-20T23:18:24.450Z,7.85
2019-03-20T23:20:55.654Z,10.08
2019-03-20T23:23:30.105Z,8.78
2019-03-20T23:26:00.243Z,9.70
2019-03-20T23:28:31.248Z,9.40
2019-03-20T23:31:10.390Z,8.90
2019-03-20T23:33:40.499Z,9.55
2019-03-20T23:36:10.611Z,9.23
2019-03-20T23:38:40.687Z,9.20
2019-03-20T23:41:25.102Z,8.48
2019-03-20T23:43:58.296Z,9.45
2019-03-20T23:46:28.387Z,9.70
2019-03-20T23:49:14.680Z,8.68
2019-03-20T23:51:46.763Z,8.78
2019-03-20T23:54:22.854Z,8.98
2019-03-20T23:56:54.882Z,9.03
2019-03-20T23:59:25.926Z,9.80
